Terminal Aerodrome Forecast
Issued by NWS

Home | Current Version | Previous Version | Text Only | Print | Product List | Glossary On
Versions: 1 2 3 4 5 6 7 8 9 10 11 12 13 14 15 16 17 18 19 20 21 22 23 24 25 26 27 28 29
000
FTUS43 KMKX 241610 AAB
TAFENW
TAF AMD
KENW 241610Z 2416/2512 24004KT 1 1/2SM BR OVC002
     FM242000 22006KT 2SM BR OVC005
     FM242100 21007KT 4SM BR SCT008 BKN018
     FM242300 20007KT P6SM BKN015
     FM250600 26005KT P6SM BKN035=

USA.gov is the U.S. government's official web portal to all federal, state and local government web resources and services.